createdAt,value
2023-04-17T00:00:56.162Z,95.135498
2023-04-17T00:02:04.926Z,94.720459
2023-04-17T00:03:14.685Z,94.927979
2023-04-17T00:04:24.437Z,95.135498
2023-04-17T00:05:32.965Z,94.927979
2023-04-17T00:06:40.664Z,94.519043
2023-04-17T00:07:50.330Z,94.311523
2023-04-17T00:08:59.019Z,94.519043
2023-04-17T00:10:08.681Z,94.519043
2023-04-17T00:11:18.723Z,94.415283
2023-04-17T00:12:26.066Z,94.720459
2023-04-17T00:13:35.761Z,94.519043
2023-04-17T00:14:45.457Z,94.000244
2023-04-17T00:15:54.122Z,94.104004
2023-04-17T00:17:03.884Z,94.769287
2023-04-17T00:18:15.037Z,94.720459
2023-04-17T00:19:25.049Z,94.354248
2023-04-17T00:20:32.850Z,95.074463
2023-04-17T00:21:41.553Z,95.281982
2023-04-17T00:22:51.290Z,95.074463
2023-04-17T00:23:58.976Z,94.720459
2023-04-17T00:25:05.630Z,94.665527
2023-04-17T00:26:15.323Z,94.873047
2023-04-17T00:27:23.967Z,95.178223
2023-04-17T00:28:32.683Z,95.074463
2023-04-17T00:29:41.340Z,94.769287
2023-04-17T00:30:50.025Z,94.970703
2023-04-17T00:31:59.779Z,95.074463
2023-04-17T00:33:07.542Z,94.970703
2023-04-17T00:34:15.228Z,95.178223
2023-04-17T00:35:24.912Z,95.178223
2023-04-17T00:36:33.599Z,95.593262
2023-04-17T00:37:42.341Z,95.593262
2023-04-17T00:38:50.992Z,95.489502
2023-04-17T00:40:00.683Z,95.281982
2023-04-17T00:41:10.461Z,95.074463
2023-04-17T00:42:20.193Z,95.489502
2023-04-17T00:43:27.825Z,95.281982
2023-04-17T00:44:37.520Z,95.178223
2023-04-17T00:45:47.219Z,95.593262
2023-04-17T00:46:55.820Z,95.800781
2023-04-17T00:48:04.514Z,95.904541
2023-04-17T00:49:12.246Z,95.697021
2023-04-17T00:50:19.866Z,95.800781
2023-04-17T00:51:29.525Z,95.593262
2023-04-17T00:52:39.211Z,95.593262
2023-04-17T00:53:47.900Z,95.593262
2023-04-17T00:54:59.713Z,95.697021
2023-04-17T00:56:09.355Z,96.008301
2023-04-17T00:57:19.077Z,95.904541
2023-04-17T00:58:26.748Z,96.008301
2023-04-17T00:59:34.393Z,95.800781
2023-04-17T01:00:44.096Z,95.758057
2023-04-17T01:01:52.728Z,95.550537
2023-04-17T01:03:02.495Z,95.800781
2023-04-17T01:04:10.361Z,95.550537
2023-04-17T01:05:18.747Z,95.550537
2023-04-17T01:06:28.402Z,95.385742
2023-04-17T01:07:36.078Z,95.446777
2023-04-17T01:08:43.756Z,95.593262
2023-04-17T01:09:53.405Z,95.800781
2023-04-17T01:11:02.065Z,95.489502
2023-04-17T01:12:10.731Z,95.593262
2023-04-17T01:13:19.452Z,95.654297
2023-04-17T01:14:28.102Z,95.654297
2023-04-17T01:15:37.780Z,95.343018
2023-04-17T01:16:45.480Z,95.031738
2023-04-17T01:17:53.160Z,95.281982
2023-04-17T01:19:02.756Z,95.281982
2023-04-17T01:20:11.396Z,95.074463
2023-04-17T01:21:20.050Z,95.281982
2023-04-17T01:22:29.728Z,95.385742
2023-04-17T01:23:39.389Z,95.593262
2023-04-17T01:24:49.209Z,95.593262
2023-04-17T01:25:57.707Z,95.385742
2023-04-17T01:27:05.350Z,95.281982
2023-04-17T01:28:15.033Z,95.074463
2023-04-17T01:29:23.688Z,95.281982
2023-04-17T01:30:33.623Z,95.385742
2023-04-17T01:31:42.424Z,95.074463
2023-04-17T01:32:52.189Z,95.074463
2023-04-17T01:34:01.829Z,94.665527
2023-04-17T01:35:09.533Z,94.665527
2023-04-17T01:36:17.212Z,95.385742
2023-04-17T01:37:26.852Z,95.281982
2023-04-17T01:38:36.532Z,95.800781
2023-04-17T01:39:46.194Z,95.800781
2023-04-17T01:40:54.886Z,96.008301
2023-04-17T01:42:03.513Z,95.593262
2023-04-17T01:43:13.218Z,95.385742
2023-04-17T01:44:20.906Z,95.697021
2023-04-17T01:45:28.544Z,95.489502
2023-04-17T01:46:38.291Z,95.593262
2023-04-17T01:47:46.934Z,95.385742
2023-04-17T01:48:55.520Z,95.489502
2023-04-17T01:50:04.183Z,95.697021
2023-04-17T01:51:13.843Z,95.593262
2023-04-17T01:52:23.507Z,95.550537
2023-04-17T01:53:32.230Z,95.593262
2023-04-17T01:54:39.880Z,95.904541
2023-04-17T01:55:49.537Z,95.855713
2023-04-17T01:56:59.223Z,95.855713
2023-04-17T01:58:07.872Z,95.654297
2023-04-17T01:59:16.528Z,95.654297
2023-04-17T02:00:25.175Z,95.800781
2023-04-17T02:01:34.858Z,96.209717
2023-04-17T02:02:43.674Z,96.270752
2023-04-17T02:03:51.294Z,95.959473
2023-04-17T02:05:00.885Z,95.855713
2023-04-17T02:06:09.520Z,95.959473
2023-04-17T02:07:18.180Z,95.959473
2023-04-17T02:08:26.890Z,95.758057
2023-04-17T02:09:35.534Z,95.855713
2023-04-17T02:10:45.181Z,95.959473
2023-04-17T02:11:52.835Z,96.166992
2023-04-17T02:13:00.570Z,95.812988
2023-04-17T02:14:10.192Z,95.501709
2023-04-17T02:15:18.193Z,95.501709
2023-04-17T02:16:27.031Z,95.709229
2023-04-17T02:17:36.655Z,95.605469
2023-04-17T02:18:46.454Z,95.404053
2023-04-17T02:19:56.116Z,95.092773
2023-04-17T02:21:04.810Z,95.092773
2023-04-17T02:22:12.443Z,95.196533
2023-04-17T02:23:22.122Z,95.501709
2023-04-17T02:24:30.804Z,95.501709
2023-04-17T02:25:39.423Z,95.501709
2023-04-17T02:26:48.083Z,95.654297
2023-04-17T02:27:57.785Z,95.709229
2023-04-17T02:29:07.468Z,95.812988
2023-04-17T02:30:17.091Z,95.501709
2023-04-17T02:31:25.938Z,95.300293
2023-04-17T02:32:34.564Z,95.404053
2023-04-17T02:33:43.202Z,95.092773
2023-04-17T02:34:52.858Z,95.196533
2023-04-17T02:36:02.573Z,95.605469
2023-04-17T02:37:12.232Z,95.959473
2023-04-17T02:38:21.919Z,96.020508
2023-04-17T02:39:30.574Z,96.020508
2023-04-17T02:40:38.234Z,96.020508
2023-04-17T02:41:47.902Z,96.020508
2023-04-17T02:42:56.570Z,95.812988
2023-04-17T02:44:06.275Z,95.605469
2023-04-17T02:45:14.941Z,95.916748
2023-04-17T02:46:23.588Z,96.020508
2023-04-17T02:47:31.245Z,95.916748
2023-04-17T02:48:40.943Z,95.916748
2023-04-17T02:49:49.605Z,95.562744
2023-04-17T02:50:58.274Z,95.458984
2023-04-17T02:52:07.958Z,95.251465
2023-04-17T02:53:16.622Z,95.050049
2023-04-17T02:54:26.318Z,95.501709
2023-04-17T02:55:34.992Z,95.770264
2023-04-17T02:56:43.674Z,95.709229
2023-04-17T02:57:53.382Z,95.666504
2023-04-17T02:59:02.082Z,95.605469
2023-04-17T03:00:11.736Z,95.874023
2023-04-17T03:01:20.451Z,95.874023
2023-04-17T03:02:29.195Z,95.977783
2023-04-17T03:03:39.045Z,96.228027
2023-04-17T03:04:47.532Z,96.179199
2023-04-17T03:05:56.178Z,96.081543
2023-04-17T03:07:05.852Z,96.282959
2023-04-17T03:08:15.519Z,95.977783
2023-04-17T03:09:24.197Z,96.081543
2023-04-17T03:10:32.878Z,96.081543
2023-04-17T03:11:42.558Z,95.928955
2023-04-17T03:12:52.225Z,95.928955
2023-04-17T03:13:59.936Z,95.623779
2023-04-17T03:15:09.588Z,95.41626
2023-04-17T03:16:19.280Z,95.20874
2023-04-17T03:17:28.939Z,95.10498
2023-04-17T03:18:37.617Z,95.062256
2023-04-17T03:19:47.310Z,94.958496
2023-04-17T03:20:55.969Z,94.958496
2023-04-17T03:22:05.643Z,94.75708
2023-04-17T03:23:13.366Z,94.854736
2023-04-17T03:24:22.073Z,94.75708
2023-04-17T03:25:31.753Z,94.75708
2023-04-17T03:26:40.419Z,94.75708
2023-04-17T03:27:49.082Z,94.65332
2023-04-17T03:28:57.770Z,94.75708
2023-04-17T03:30:06.480Z,94.854736
2023-04-17T03:31:16.109Z,94.854736
2023-04-17T03:32:23.869Z,94.958496
2023-04-17T03:33:32.617Z,94.75708
2023-04-17T03:34:42.282Z,94.854736
2023-04-17T03:35:50.970Z,95.20874
2023-04-17T03:36:59.636Z,95.477295
2023-04-17T03:38:09.358Z,95.269775
2023-04-17T03:39:19.064Z,95.373535
2023-04-17T03:40:28.723Z,95.166016
2023-04-17T03:41:38.374Z,95.062256
2023-04-17T03:42:47.052Z,94.915771
2023-04-17T03:43:56.740Z,94.812012
2023-04-17T03:45:04.446Z,94.915771
2023-04-17T03:46:14.286Z,94.812012
2023-04-17T03:47:23.910Z,94.708252
2023-04-17T03:48:33.560Z,94.708252
2023-04-17T03:49:43.301Z,94.604492
2023-04-17T03:50:53.009Z,94.812012
2023-04-17T03:52:00.666Z,94.915771
2023-04-17T03:53:09.324Z,95.019531
2023-04-17T03:54:18.032Z,95.123291
2023-04-17T03:55:26.710Z,95.477295
2023-04-17T03:56:35.381Z,95.678711
2023-04-17T03:57:43.070Z,95.635986
2023-04-17T03:58:52.777Z,95.532227
2023-04-17T04:00:01.482Z,95.532227
2023-04-17T04:01:09.158Z,95.782471
2023-04-17T04:02:18.938Z,96.405029
2023-04-17T04:03:27.780Z,96.875
2023-04-17T04:04:37.358Z,96.77124
2023-04-17T04:05:45.950Z,96.875
2023-04-17T04:06:54.647Z,96.105957
2023-04-17T04:08:04.311Z,96.105957
2023-04-17T04:09:12.178Z,96.002197
2023-04-17T04:10:20.675Z,96.105957
2023-04-17T04:11:30.350Z,95.800781
2023-04-17T04:12:39.010Z,95.489502
2023-04-17T04:13:47.689Z,95.593262
2023-04-17T04:14:57.413Z,95.697021
2023-04-17T04:16:07.136Z,95.489502
2023-04-17T04:17:16.786Z,95.489502
2023-04-17T04:18:24.446Z,95.489502
2023-04-17T04:19:32.155Z,94.976807
2023-04-17T04:20:41.869Z,95.178223
2023-04-17T04:21:50.595Z,95.178223
2023-04-17T04:22:59.249Z,94.873047
2023-04-17T04:24:07.927Z,94.769287
2023-04-17T04:25:16.636Z,94.873047
2023-04-17T04:26:26.325Z,94.976807
2023-04-17T04:27:35.011Z,95.330811
2023-04-17T04:28:43.732Z,95.489502
2023-04-17T04:29:53.472Z,95.227051
2023-04-17T04:31:02.210Z,95.739746
2023-04-17T04:32:10.880Z,95.947266
2023-04-17T04:33:18.566Z,95.697021
2023-04-17T04:34:27.273Z,95.385742
2023-04-17T04:35:38.305Z,94.873047
2023-04-17T04:36:45.678Z,95.080566
2023-04-17T04:37:54.421Z,95.080566
2023-04-17T04:39:04.080Z,95.080566
2023-04-17T04:40:12.759Z,95.227051
2023-04-17T04:41:21.453Z,95.385742
2023-04-17T04:42:30.137Z,94.769287
2023-04-17T04:43:39.826Z,94.976807
2023-04-17T04:44:47.772Z,94.769287
2023-04-17T04:45:57.463Z,94.665527
2023-04-17T04:47:07.164Z,94.873047
2023-04-17T04:48:15.844Z,94.604492
2023-04-17T04:49:25.591Z,94.708252
2023-04-17T04:50:34.310Z,95.019531
2023-04-17T04:51:43.982Z,95.123291
2023-04-17T04:52:52.694Z,95.019531
2023-04-17T04:54:00.392Z,94.708252
2023-04-17T04:55:10.079Z,94.769287
2023-04-17T04:56:18.778Z,94.458008
2023-04-17T04:57:27.488Z,94.458008
2023-04-17T04:58:37.169Z,94.152832
2023-04-17T04:59:45.863Z,94.256592
2023-04-17T05:00:55.609Z,94.256592
2023-04-17T05:02:03.353Z,94.256592
2023-04-17T05:03:11.120Z,94.458008
2023-04-17T05:04:20.748Z,94.665527
2023-04-17T05:05:29.352Z,94.360352
2023-04-17T05:06:37.007Z,94.458008
2023-04-17T05:07:45.674Z,94.360352
2023-04-17T05:08:55.327Z,94.360352
2023-04-17T05:10:05.073Z,94.622803
2023-04-17T05:11:14.712Z,94.622803
2023-04-17T05:12:22.372Z,94.372559
2023-04-17T05:13:32.043Z,94.110107
2023-04-17T05:14:40.716Z,93.963623
2023-04-17T05:15:49.434Z,93.652344
2023-04-17T05:16:58.094Z,93.444824
2023-04-17T05:18:06.781Z,93.493652
2023-04-17T05:19:16.548Z,93.389893
2023-04-17T05:20:26.318Z,93.493652
2023-04-17T05:21:34.006Z,93.798828
2023-04-17T05:22:43.706Z,93.695068
2023-04-17T05:23:52.432Z,93.493652
2023-04-17T05:25:02.181Z,93.756104
2023-04-17T05:26:10.933Z,93.652344
2023-04-17T05:27:19.573Z,93.548584
2023-04-17T05:28:29.280Z,93.548584
2023-04-17T05:29:36.989Z,93.548584
2023-04-17T05:30:44.677Z,93.347168
2023-04-17T05:31:54.430Z,93.444824
2023-04-17T05:33:03.072Z,93.304443
2023-04-17T05:34:11.733Z,93.200684
2023-04-17T05:35:20.435Z,93.243408
2023-04-17T05:36:29.107Z,93.695068
2023-04-17T05:37:38.828Z,94.311523
2023-04-17T05:38:46.552Z,94.622803
2023-04-17T05:39:54.194Z,94.415283
2023-04-17T05:41:03.900Z,94.561768
2023-04-17T05:42:13.653Z,95.019531
2023-04-17T05:43:22.351Z,95.330811
2023-04-17T05:44:31.003Z,95.532227
2023-04-17T05:45:39.723Z,95.593262
2023-04-17T05:46:48.347Z,95.532227
2023-04-17T05:47:57.138Z,95.281982
2023-04-17T05:49:03.746Z,95.227051
2023-04-17T05:50:13.429Z,95.227051
2023-04-17T05:51:22.161Z,95.3125
2023-04-17T05:52:31.022Z,96.032715
2023-04-17T05:53:41.563Z,96.386719
2023-04-17T05:54:51.235Z,96.801758
2023-04-17T05:56:00.960Z,97.009277
2023-04-17T05:57:09.638Z,97.314453
2023-04-17T05:59:30.023Z,97.106934
2023-04-17T06:00:38.734Z,97.106934
2023-04-17T06:01:47.429Z,97.106934
2023-04-17T06:02:56.426Z,96.905518
2023-04-17T06:04:05.990Z,96.801758
2023-04-17T06:05:15.655Z,97.009277
2023-04-17T06:06:24.406Z,97.052002
2023-04-17T06:07:32.085Z,97.668457
2023-04-17T06:08:41.812Z,97.833252
2023-04-17T06:09:50.491Z,97.625732
2023-04-17T06:10:59.227Z,97.521973
2023-04-17T06:12:06.976Z,97.314453
2023-04-17T06:13:16.661Z,97.106934
2023-04-17T06:14:26.458Z,97.106934
2023-04-17T06:15:35.155Z,97.155762
2023-04-17T06:16:43.986Z,97.467041
2023-04-17T06:17:53.638Z,97.875977
2023-04-17T06:19:02.283Z,98.083496
2023-04-17T06:20:11.004Z,97.979736
2023-04-17T06:21:19.697Z,97.625732
2023-04-17T06:22:29.385Z,97.729492
2023-04-17T06:23:39.113Z,97.271729
2023-04-17T06:24:46.788Z,96.813965
2023-04-17T06:25:54.466Z,96.240234
2023-04-17T06:27:04.185Z,96.405029
2023-04-17T06:28:12.894Z,96.19751
2023-04-17T06:29:22.568Z,96.09375
2023-04-17T06:30:31.312Z,95.843506
2023-04-17T06:31:40.017Z,95.635986
2023-04-17T06:32:49.708Z,95.428467
2023-04-17T06:33:58.401Z,95.739746
2023-04-17T06:35:07.119Z,95.330811
2023-04-17T06:36:16.843Z,95.123291
2023-04-17T06:37:26.589Z,95.532227
2023-04-17T06:38:35.293Z,95.281982
2023-04-17T06:39:43.951Z,94.976807
2023-04-17T06:40:53.625Z,94.830322
2023-04-17T06:42:01.378Z,94.506836
2023-04-17T06:43:11.063Z,94.915771
2023-04-17T06:44:19.768Z,95.330811
2023-04-17T06:45:29.460Z,95.178223
2023-04-17T06:46:38.204Z,94.927979
2023-04-17T06:47:46.855Z,94.561768
2023-04-17T06:48:56.542Z,94.519043
2023-04-17T06:50:04.241Z,94.415283
2023-04-17T06:51:11.933Z,94.110107
2023-04-17T06:52:21.624Z,93.695068
2023-04-17T06:53:31.417Z,94.049072
2023-04-17T06:54:40.072Z,94.213867
2023-04-17T06:55:48.771Z,94.006348
2023-04-17T06:56:57.541Z,93.695068
2023-04-17T06:58:07.219Z,93.695068
2023-04-17T06:59:15.033Z,93.695068
2023-04-17T07:00:22.789Z,93.798828
2023-04-17T07:01:32.502Z,94.110107
2023-04-17T07:02:41.438Z,93.737793
2023-04-17T07:03:50.040Z,94.006348
2023-04-17T07:04:59.649Z,94.299316
2023-04-17T07:06:08.349Z,94.873047
2023-04-17T07:07:18.027Z,94.769287
2023-04-17T07:08:27.759Z,94.873047
2023-04-17T07:09:37.446Z,94.665527
2023-04-17T07:10:47.136Z,94.415283
2023-04-17T07:11:57.027Z,94.006348
2023-04-17T07:13:05.726Z,93.652344
2023-04-17T07:14:15.378Z,93.548584
2023-04-17T07:15:24.142Z,93.548584
2023-04-17T07:16:33.915Z,93.347168
2023-04-17T07:17:42.529Z,93.444824
2023-04-17T07:18:51.248Z,93.035889
2023-04-17T07:20:00.913Z,93.444824
2023-04-17T07:21:09.575Z,93.243408
2023-04-17T07:22:18.280Z,93.139648
2023-04-17T07:23:26.964Z,93.347168
2023-04-17T07:24:35.620Z,93.035889
2023-04-17T07:25:45.312Z,93.548584
2023-04-17T07:26:53.037Z,93.347168
2023-04-17T07:28:01.747Z,93.035889
2023-04-17T07:29:10.606Z,93.243408
2023-04-17T07:30:20.059Z,92.993164
2023-04-17T07:31:28.846Z,93.139648
2023-04-17T07:32:37.467Z,93.139648
2023-04-17T07:33:47.178Z,93.243408
2023-04-17T07:34:56.908Z,93.505859
2023-04-17T07:36:05.593Z,93.4021
2023-04-17T07:37:14.315Z,93.200684
2023-04-17T07:38:23.991Z,93.609619
2023-04-17T07:39:32.661Z,93.304443
2023-04-17T07:40:41.353Z,93.243408
2023-04-17T07:41:51.048Z,93.902588
2023-04-17T07:42:59.761Z,94.311523
2023-04-17T07:44:09.479Z,94.830322
2023-04-17T07:45:17.139Z,95.092773
2023-04-17T07:46:25.346Z,94.781494
2023-04-17T07:47:35.080Z,94.683838
2023-04-17T07:48:43.729Z,94.476318
2023-04-17T07:49:53.409Z,94.329834
2023-04-17T07:51:02.172Z,94.165039
2023-04-17T07:52:10.823Z,94.580078
2023-04-17T07:53:20.571Z,94.537354
2023-04-17T07:54:28.267Z,94.226074
2023-04-17T07:55:35.936Z,94.07959
2023-04-17T07:56:45.618Z,93.670654
2023-04-17T07:57:55.381Z,93.670654
2023-04-17T07:59:04.074Z,93.4021
2023-04-17T08:00:12.804Z,93.817139
2023-04-17T08:01:22.478Z,94.165039
2023-04-17T08:02:32.310Z,94.683838
2023-04-17T08:03:41.048Z,94.885254
2023-04-17T08:04:48.694Z,95.196533
2023-04-17T08:05:58.250Z,95.404053
2023-04-17T08:07:07.033Z,95.153809
2023-04-17T08:08:16.661Z,94.842529
2023-04-17T08:09:25.354Z,94.488525
2023-04-17T08:10:34.053Z,94.226074
2023-04-17T08:11:56.048Z,94.18335
2023-04-17T08:12:53.476Z,93.566895
2023-04-17T08:14:02.203Z,93.933105
2023-04-17T08:15:11.973Z,93.52417
2023-04-17T08:16:21.900Z,93.566895
2023-04-17T08:17:30.605Z,93.566895
2023-04-17T08:18:40.327Z,94.07959
2023-04-17T08:19:48.995Z,93.87207
2023-04-17T08:20:58.724Z,94.07959
2023-04-17T08:22:06.446Z,94.07959
2023-04-17T08:23:14.185Z,94.07959
2023-04-17T08:24:23.835Z,93.829346
2023-04-17T08:25:32.552Z,93.933105
2023-04-17T08:26:43.334Z,93.725586
2023-04-17T08:27:53.055Z,93.725586
2023-04-17T08:29:02.769Z,93.377686
2023-04-17T08:30:13.443Z,92.96875
2023-04-17T08:31:23.135Z,93.066406
2023-04-17T08:32:30.926Z,93.023682
2023-04-17T08:33:40.609Z,92.510986
2023-04-17T08:34:49.308Z,92.41333
2023-04-17T08:35:56.989Z,92.30957
2023-04-17T08:37:07.772Z,91.998291
2023-04-17T08:38:17.459Z,92.144775
2023-04-17T08:39:26.097Z,92.205811
2023-04-17T08:40:35.821Z,92.510986
2023-04-17T08:41:44.476Z,92.510986
2023-04-17T08:42:53.186Z,92.102051
2023-04-17T08:44:01.879Z,91.485596
2023-04-17T08:45:09.543Z,91.650391
2023-04-17T08:46:19.290Z,91.589355
2023-04-17T08:47:29.086Z,91.345215
2023-04-17T08:48:37.712Z,91.137695
2023-04-17T08:49:47.374Z,91.137695
2023-04-17T08:50:56.090Z,91.546631
2023-04-17T08:52:04.807Z,91.442871
2023-04-17T08:53:13.552Z,91.19873
2023-04-17T08:54:23.280Z,90.887451
2023-04-17T08:55:31.895Z,90.582275
2023-04-17T08:56:39.622Z,90.478516
2023-04-17T08:57:47.388Z,90.539551
2023-04-17T08:58:58.049Z,90.338135
2023-04-17T09:00:07.714Z,89.886475
2023-04-17T09:01:15.470Z,89.0625
2023-04-17T09:02:25.428Z,88.861084
2023-04-17T09:03:32.925Z,88.7146
2023-04-17T09:04:42.675Z,88.165283
2023-04-17T09:05:51.225Z,87.921143
2023-04-17T09:06:58.988Z,87.164307
2023-04-17T09:08:08.700Z,86.853027
2023-04-17T09:09:17.385Z,86.102295
2023-04-17T09:10:25.249Z,85.284424
2023-04-17T09:11:34.910Z,85.321045
2023-04-17T09:12:43.621Z,86.102295
2023-04-17T09:13:52.342Z,85.791016
2023-04-17T09:15:00.020Z,84.936523
2023-04-17T09:16:07.766Z,83.978271
2023-04-17T09:17:17.448Z,83.630371
2023-04-17T09:18:26.154Z,82.611084
2023-04-17T09:19:35.856Z,82.513428
2023-04-17T09:20:44.528Z,82.409668
2023-04-17T09:21:54.193Z,82.69043
2023-04-17T09:23:03.920Z,83.850098
2023-04-17T09:24:11.636Z,84.814453
2023-04-17T09:25:20.357Z,85.876465
2023-04-17T09:26:30.147Z,85.9375
2023-04-17T09:27:38.693Z,85.48584
2023-04-17T09:28:47.381Z,84.936523
2023-04-17T09:29:56.057Z,84.362793
2023-04-17T09:31:05.824Z,85.284424
2023-04-17T09:32:16.595Z,84.631348
2023-04-17T09:33:24.195Z,84.222412
2023-04-17T09:34:31.915Z,84.466553
2023-04-17T09:35:41.604Z,84.735107
2023-04-17T09:36:51.287Z,83.709717
2023-04-17T09:38:00.032Z,83.26416
2023-04-17T09:39:08.700Z,83.325195
2023-04-17T09:40:16.399Z,83.02002
2023-04-17T09:41:26.092Z,82.611084
2023-04-17T09:42:33.836Z,82.446289
2023-04-17T09:43:41.569Z,83.612061
2023-04-17T09:44:51.258Z,84.301758
2023-04-17T09:46:00.991Z,85.321045
2023-04-17T09:47:09.652Z,85.72998
2023-04-17T09:48:18.383Z,85.528564
2023-04-17T09:49:27.104Z,85.528564
2023-04-17T09:50:38.089Z,85.284424
2023-04-17T09:51:46.478Z,84.979248
2023-04-17T09:52:56.209Z,84.814453
2023-04-17T09:54:05.907Z,85.076904
2023-04-17T09:55:14.645Z,84.979248
2023-04-17T09:56:23.334Z,84.814453
2023-04-17T09:57:33.005Z,85.076904
2023-04-17T09:58:42.722Z,84.875488
2023-04-17T09:59:52.436Z,85.015869
2023-04-17T10:01:01.141Z,84.979248
2023-04-17T10:02:10.875Z,84.222412
2023-04-17T10:03:19.781Z,83.813477
2023-04-17T10:04:29.374Z,83.465576
2023-04-17T10:05:38.996Z,83.203125
2023-04-17T10:06:47.667Z,83.612061
2023-04-17T10:07:56.352Z,83.404541
2023-04-17T10:09:06.071Z,83.917236
2023-04-17T10:10:13.745Z,83.776855
2023-04-17T10:11:22.420Z,83.02002
2023-04-17T10:12:33.313Z,82.373047
2023-04-17T10:13:40.848Z,81.756592
2023-04-17T10:14:49.564Z,81.14624
2023-04-17T10:15:59.277Z,80.804443
2023-04-17T10:17:08.911Z,80.804443
2023-04-17T10:18:18.617Z,80.395508
2023-04-17T10:19:27.101Z,80.157471
2023-04-17T10:20:34.781Z,80.065918
2023-04-17T10:21:44.464Z,81.121826
2023-04-17T10:22:53.180Z,81.939697
2023-04-17T10:24:01.912Z,82.208252
2023-04-17T10:25:10.595Z,81.591797
2023-04-17T10:26:19.263Z,81.25
2023-04-17T10:27:28.970Z,80.395508
2023-04-17T10:28:37.684Z,80.023193
2023-04-17T10:29:46.389Z,80.535889
2023-04-17T10:30:56.117Z,80.639648
2023-04-17T10:32:05.884Z,81.323242
2023-04-17T10:33:14.510Z,81.799316
2023-04-17T10:34:24.190Z,81.451416
2023-04-17T10:35:33.890Z,81.25
2023-04-17T10:36:40.565Z,81.634521
2023-04-17T10:37:50.277Z,82.855225
2023-04-17T10:38:58.964Z,82.855225
2023-04-17T10:40:07.636Z,82.714844
2023-04-17T10:41:16.340Z,82.305908
2023-04-17T10:42:25.045Z,81.896973
2023-04-17T10:43:34.729Z,82.000732
2023-04-17T10:44:43.443Z,82.037354
2023-04-17T10:45:52.173Z,82.208252
2023-04-17T10:47:01.985Z,81.939697
2023-04-17T10:48:11.580Z,81.896973
2023-04-17T10:49:20.195Z,81.390381
2023-04-17T10:50:29.893Z,81.634521
2023-04-17T10:51:38.596Z,82.751465
2023-04-17T10:52:48.233Z,83.709717
2023-04-17T10:53:56.969Z,84.423828
2023-04-17T10:55:05.642Z,84.979248
2023-04-17T10:56:15.364Z,85.38208
2023-04-17T10:57:25.023Z,85.180664
2023-04-17T10:58:33.729Z,85.449219
2023-04-17T10:59:41.478Z,85.137939
2023-04-17T11:00:50.157Z,85.040283
2023-04-17T11:01:59.949Z,85.040283
2023-04-17T11:03:08.551Z,84.387207
2023-04-17T11:04:16.293Z,84.179688
2023-04-17T11:05:25.931Z,83.813477
2023-04-17T11:06:35.682Z,83.874512
2023-04-17T11:07:45.379Z,83.978271
2023-04-17T11:08:54.706Z,83.288574
2023-04-17T11:10:02.813Z,82.879639
2023-04-17T11:11:12.502Z,82.067871
2023-04-17T11:12:21.161Z,82.128906
2023-04-17T11:13:28.830Z,81.68335
2023-04-17T11:14:38.566Z,80.828857
2023-04-17T11:15:47.222Z,79.772949
2023-04-17T11:16:56.911Z,78.924561
2023-04-17T11:18:06.577Z,78.076172
2023-04-17T11:19:16.267Z,77.22168
2023-04-17T11:20:25.929Z,76.953125
2023-04-17T11:21:34.636Z,77.435303
2023-04-17T11:22:42.365Z,78.491211
2023-04-17T11:23:52.056Z,79.199219
2023-04-17T11:25:00.741Z,79.199219
2023-04-17T11:26:09.419Z,79.711914
2023-04-17T11:27:18.124Z,78.894043
2023-04-17T11:28:27.868Z,78.796387
2023-04-17T11:29:37.540Z,78.387451
2023-04-17T11:30:45.348Z,78.588867
2023-04-17T11:31:52.973Z,78.491211
2023-04-17T11:33:02.692Z,77.56958
2023-04-17T11:34:12.409Z,77.636719
2023-04-17T11:35:21.113Z,76.89209
2023-04-17T11:36:30.833Z,77.124023
2023-04-17T11:37:39.504Z,75.457764
2023-04-17T11:38:49.215Z,75.018311
2023-04-17T11:39:57.930Z,74.273682
2023-04-17T11:41:05.642Z,73.120117
2023-04-17T11:42:15.353Z,72.210693
2023-04-17T11:43:24.026Z,72.613525
2023-04-17T11:44:32.729Z,72.747803
2023-04-17T11:45:42.445Z,71.435547
2023-04-17T11:46:51.094Z,71.435547
2023-04-17T11:48:00.873Z,70.928955
2023-04-17T11:49:08.465Z,71.295166
2023-04-17T11:50:17.210Z,71.838379
2023-04-17T11:51:26.971Z,72.277832
2023-04-17T11:52:35.593Z,71.801758
2023-04-17T11:53:45.285Z,71.533203
2023-04-17T11:54:53.961Z,71.331787
2023-04-17T11:56:02.653Z,70.385742
2023-04-17T11:57:12.337Z,70.288086
2023-04-17T11:58:21.022Z,70.288086
2023-04-17T11:59:28.732Z,70.452881
2023-04-17T12:00:38.455Z,72.717285
2023-04-17T12:01:48.134Z,74.176025
2023-04-17T12:02:56.955Z,74.212646
2023-04-17T12:04:05.643Z,75.091553
2023-04-17T12:05:15.279Z,74.102783
2023-04-17T12:06:24.974Z,73.596191
2023-04-17T12:07:33.679Z,73.156738
2023-04-17T12:08:41.363Z,71.942139
2023-04-17T12:09:51.068Z,71.77124
2023-04-17T12:11:00.816Z,73.291016
2023-04-17T12:12:10.479Z,72.344971
2023-04-17T12:13:20.246Z,71.734619
2023-04-17T12:14:29.938Z,70.587158
2023-04-17T12:15:39.620Z,71.19751
2023-04-17T12:16:47.312Z,71.569824
2023-04-17T12:17:56.083Z,71.130371
2023-04-17T12:19:05.729Z,70.721436
2023-04-17T12:20:15.410Z,69.915771
2023-04-17T12:21:25.113Z,70.587158
2023-04-17T12:22:33.801Z,69.543457
2023-04-17T12:23:43.484Z,68.328857
2023-04-17T12:24:53.187Z,68.09082
2023-04-17T12:26:02.884Z,68.225098
2023-04-17T12:27:11.584Z,68.933105
2023-04-17T12:28:21.242Z,68.188477
2023-04-17T12:29:42.708Z,68.560791
2023-04-17T12:30:40.599Z,67.419434
2023-04-17T12:31:49.392Z,67.718506
2023-04-17T12:32:59.099Z,67.926025
2023-04-17T12:34:08.743Z,67.285156
2023-04-17T12:35:18.466Z,66.546631
2023-04-17T12:36:27.176Z,66.241455
2023-04-17T12:37:36.820Z,65.643311
2023-04-17T12:38:45.496Z,64.331055
2023-04-17T12:39:54.239Z,63.989258
2023-04-17T12:41:03.960Z,65.301514
2023-04-17T12:42:11.600Z,64.501953
2023-04-17T12:43:19.337Z,63.220215
2023-04-17T12:44:29.024Z,64.886475
2023-04-17T12:45:38.068Z,67.004395
2023-04-17T12:46:46.415Z,67.651367
2023-04-17T12:47:55.115Z,67.346191
2023-04-17T12:49:03.800Z,67.181396
2023-04-17T12:50:13.507Z,66.278076
2023-04-17T12:51:22.174Z,65.130615
2023-04-17T12:52:29.849Z,67.590332
2023-04-17T12:53:39.570Z,66.577148
2023-04-17T12:54:48.257Z,66.674805
2023-04-17T12:55:56.993Z,67.352295
2023-04-17T12:57:06.637Z,66.918945
2023-04-17T12:58:15.341Z,65.673828
2023-04-17T12:59:25.031Z,65.307617
2023-04-17T13:00:32.736Z,64.703369
2023-04-17T13:01:41.442Z,63.995361
2023-04-17T13:02:51.170Z,63.95874
2023-04-17T13:04:00.039Z,65.466309
2023-04-17T13:05:09.516Z,67.388916
2023-04-17T13:06:19.192Z,65.301514
2023-04-17T13:07:27.852Z,64.898682
2023-04-17T13:08:37.577Z,65.197754
2023-04-17T13:09:46.237Z,65.332031
2023-04-17T13:10:54.968Z,66.809082